createdAt,value
2024-02-13T00:01:13.143Z,6.40
2024-02-13T00:03:43.498Z,8.15
2024-02-13T00:06:13.802Z,12.38
2024-02-13T00:08:45.905Z,8.05
2024-02-13T00:11:17.308Z,9.98
2024-02-13T00:13:50.339Z,11.32
2024-02-13T00:16:21.906Z,7.03
2024-02-13T00:18:52.616Z,8.65
2024-02-13T00:21:22.896Z,12.38
2024-02-13T00:23:53.237Z,11.07
2024-02-13T00:26:24.956Z,9.98
2024-02-13T00:28:57.900Z,10.05
2024-02-13T00:31:28.223Z,9.77
2024-02-13T00:33:58.541Z,10.77
2024-02-13T00:36:28.930Z,9.52
2024-02-13T00:38:59.214Z,8.50
2024-02-13T00:41:30.344Z,8.00
2024-02-13T00:44:03.235Z,8.95
2024-02-13T00:46:33.534Z,7.65
2024-02-13T00:49:05.294Z,9.30
2024-02-13T00:51:35.609Z,9.63
2024-02-13T00:54:05.926Z,9.45
2024-02-13T00:56:36.308Z,7.88
2024-02-13T00:59:09.480Z,10.32
2024-02-13T01:01:40.138Z,6.53
2024-02-13T01:04:10.430Z,11.32
2024-02-13T01:06:40.910Z,6.55
2024-02-13T01:09:11.237Z,7.47
2024-02-13T01:11:41.552Z,6.53
2024-02-13T01:14:14.677Z,5.97
2024-02-13T01:16:44.969Z,8.10
2024-02-13T01:19:15.261Z,8.05
2024-02-13T01:21:45.911Z,7.43
2024-02-13T01:24:16.156Z,7.90
2024-02-13T01:26:46.990Z,6.03
2024-02-13T01:29:19.906Z,7.45
2024-02-13T01:31:50.491Z,4.18
2024-02-13T01:34:20.797Z,7.63
2024-02-13T01:36:51.106Z,5.47
2024-02-13T01:39:21.458Z,5.82
2024-02-13T01:41:51.851Z,6.93
2024-02-13T01:44:25.779Z,7.18
2024-02-13T01:46:57.348Z,5.53
2024-02-13T01:49:29.921Z,5.97
2024-02-13T01:52:03.540Z,5.60
2024-02-13T01:54:34.229Z,3.05
2024-02-13T01:57:04.669Z,4.38
2024-02-13T01:59:40.351Z,9.35
2024-02-13T02:02:13.438Z,5.32
2024-02-13T02:04:43.975Z,7.63
2024-02-13T02:07:14.772Z,4.50
2024-02-13T02:09:47.183Z,3.53
2024-02-13T02:12:18.828Z,4.18
2024-02-13T02:14:51.919Z,4.80
2024-02-13T02:17:24.026Z,7.80
2024-02-13T02:19:54.415Z,8.10
2024-02-13T02:22:25.284Z,5.18
2024-02-13T02:24:56.301Z,8.77
2024-02-13T02:27:29.348Z,4.60
2024-02-13T02:29:59.686Z,3.33
2024-02-13T02:32:30.075Z,5.18
2024-02-13T02:35:00.656Z,5.13
2024-02-13T02:37:31.124Z,10.02
2024-02-13T02:40:01.546Z,7.10
2024-02-13T02:42:34.522Z,5.60
2024-02-13T02:45:07.814Z,7.28
2024-02-13T02:47:38.689Z,7.07
2024-02-13T02:50:11.749Z,4.40
2024-02-13T02:52:43.286Z,6.55
2024-02-13T02:55:13.615Z,4.75
2024-02-13T02:57:46.594Z,7.22
2024-02-13T03:00:20.496Z,6.25
2024-02-13T03:02:51.002Z,4.97
2024-02-13T03:05:22.382Z,7.30
2024-02-13T03:07:52.762Z,6.72
2024-02-13T03:10:23.151Z,4.05
2024-02-13T03:12:56.862Z,4.30
2024-02-13T03:15:28.505Z,6.35
2024-02-13T03:17:59.337Z,4.70
2024-02-13T03:20:29.785Z,5.72
2024-02-13T03:23:00.236Z,5.03
2024-02-13T03:25:30.606Z,5.15
2024-02-13T03:28:04.086Z,5.50
2024-02-13T03:30:34.809Z,5.88
2024-02-13T03:33:05.445Z,6.15
2024-02-13T03:35:36.105Z,6.82
2024-02-13T03:38:06.760Z,3.13
2024-02-13T03:40:37.246Z,5.47
2024-02-13T03:43:11.336Z,7.38
2024-02-13T03:45:41.646Z,3.03
2024-02-13T03:48:12.317Z,4.18
2024-02-13T03:50:43.078Z,3.17
2024-02-13T03:53:14.767Z,8.73
2024-02-13T03:55:45.164Z,6.03
2024-02-13T03:58:18.332Z,7.88
2024-02-13T04:00:48.684Z,4.57
2024-02-13T04:03:19.034Z,7.35
2024-02-13T04:05:49.493Z,8.10
2024-02-13T04:08:19.898Z,8.82
2024-02-13T04:10:51.741Z,9.15
2024-02-13T04:13:25.844Z,7.15
2024-02-13T04:15:57.272Z,4.33
2024-02-13T04:18:28.238Z,5.70
2024-02-13T04:20:59.044Z,10.57
2024-02-13T04:23:30.098Z,8.70
2024-02-13T04:26:00.680Z,9.50
2024-02-13T04:28:33.639Z,6.90
2024-02-13T04:31:03.983Z,7.30
2024-02-13T04:33:34.479Z,10.38
2024-02-13T04:36:05.107Z,6.00
2024-02-13T04:38:35.547Z,5.13
2024-02-13T04:41:05.962Z,5.00
2024-02-13T04:43:38.926Z,11.68
2024-02-13T04:46:09.255Z,7.68
2024-02-13T04:48:40.349Z,6.00
2024-02-13T04:51:10.993Z,7.70
2024-02-13T04:53:41.446Z,7.25
2024-02-13T04:56:11.924Z,8.73
2024-02-13T04:58:45.417Z,8.65
2024-02-13T05:01:16.371Z,8.48
2024-02-13T05:04:07.403Z,7.70
2024-02-13T05:06:50.130Z,7.95
2024-02-13T05:09:21.513Z,8.43
2024-02-13T05:11:51.813Z,9.15
2024-02-13T05:14:25.114Z,5.72
2024-02-13T05:16:56.034Z,7.82
2024-02-13T05:19:27.677Z,4.72
2024-02-13T05:21:58.196Z,5.40
2024-02-13T05:24:28.606Z,4.35
2024-02-13T05:26:59.379Z,4.43
2024-02-13T05:29:34.543Z,5.57
2024-02-13T05:32:04.941Z,6.55
2024-02-13T05:34:35.423Z,5.43
2024-02-13T05:37:06.620Z,7.25
2024-02-13T05:39:37.606Z,5.75
2024-02-13T05:42:08.681Z,7.10
2024-02-13T05:44:41.681Z,3.47
2024-02-13T05:47:12.060Z,9.80
2024-02-13T05:49:45.592Z,8.63
2024-02-13T05:52:15.990Z,4.90
2024-02-13T05:54:46.545Z,5.57
2024-02-13T05:57:17.051Z,5.63
2024-02-13T05:59:50.406Z,7.47
2024-02-13T06:02:20.815Z,8.80
2024-02-13T06:04:51.183Z,6.95
2024-02-13T06:07:21.862Z,4.82
2024-02-13T06:09:52.258Z,10.43
2024-02-13T06:12:22.664Z,9.50
2024-02-13T06:14:55.674Z,7.30
2024-02-13T06:17:26.179Z,7.60
2024-02-13T06:19:59.218Z,5.38
2024-02-13T06:22:30.264Z,10.43
2024-02-13T06:25:00.584Z,12.27
2024-02-13T06:27:31.056Z,8.60
2024-02-13T06:30:04.872Z,6.82
2024-02-13T06:32:35.572Z,9.48
2024-02-13T06:35:06.249Z,12.80
2024-02-13T06:37:39.136Z,8.75
2024-02-13T06:40:12.071Z,9.63
2024-02-13T06:42:42.374Z,11.63
2024-02-13T06:45:15.781Z,9.88
2024-02-13T06:47:47.069Z,9.38
2024-02-13T06:50:17.843Z,6.95
2024-02-13T06:52:51.699Z,9.15
2024-02-13T06:55:22.916Z,8.52
2024-02-13T06:57:53.282Z,11.40
2024-02-13T07:00:27.474Z,13.63
2024-02-13T07:03:00.544Z,7.63
2024-02-13T07:05:31.421Z,13.07
2024-02-13T07:08:01.950Z,11.90
2024-02-13T07:10:32.478Z,15.63
2024-02-13T07:13:02.973Z,14.15
2024-02-13T07:15:36.936Z,13.55
2024-02-13T07:18:09.741Z,11.87
2024-02-13T07:20:40.538Z,15.15
2024-02-13T07:23:11.226Z,18.23
2024-02-13T07:25:41.853Z,33.33
2024-02-13T07:28:12.229Z,67.43
2024-02-13T07:30:45.216Z,120.53
2024-02-13T07:33:15.781Z,148.18
2024-02-13T07:35:46.271Z,168.25
2024-02-13T07:38:17.040Z,156.50
2024-02-13T07:40:48.189Z,121.55
2024-02-13T07:43:18.629Z,70.68
2024-02-13T07:45:51.624Z,47.28
2024-02-13T07:48:22.752Z,28.70
2024-02-13T07:50:55.457Z,26.00
2024-02-13T07:53:27.533Z,20.00
2024-02-13T07:55:58.209Z,23.00
2024-02-13T07:58:28.564Z,32.35
2024-02-13T08:01:01.574Z,30.33
2024-02-13T08:03:34.783Z,24.80
2024-02-13T08:06:05.432Z,18.48
2024-02-13T08:08:36.158Z,13.73
2024-02-13T08:11:08.154Z,14.38
2024-02-13T08:13:39.072Z,13.10
2024-02-13T08:16:12.779Z,11.60
2024-02-13T08:18:43.225Z,21.02
2024-02-13T08:21:13.734Z,21.48
2024-02-13T08:23:44.235Z,14.15
2024-02-13T08:26:14.651Z,15.63
2024-02-13T08:28:45.835Z,14.75
2024-02-13T08:31:18.794Z,15.02
2024-02-13T08:33:49.419Z,11.38
2024-02-13T08:36:20.124Z,15.90
2024-02-13T08:38:50.847Z,21.60
2024-02-13T08:41:21.281Z,8.73
2024-02-13T08:43:52.536Z,14.73
2024-02-13T08:46:26.776Z,12.85
2024-02-13T08:48:57.287Z,9.02
2024-02-13T08:51:29.373Z,9.60
2024-02-13T08:54:00.580Z,14.13
2024-02-13T08:56:31.002Z,15.05
2024-02-13T08:59:04.658Z,5.57
2024-02-13T09:01:37.762Z,11.05
2024-02-13T09:04:08.452Z,11.35
2024-02-13T09:06:38.913Z,8.88
2024-02-13T09:09:10.525Z,12.30
2024-02-13T09:11:41.047Z,11.48
2024-02-13T09:14:13.286Z,9.95
2024-02-13T09:16:46.270Z,7.43
2024-02-13T09:19:16.758Z,9.65
2024-02-13T09:21:47.298Z,7.55
2024-02-13T09:24:17.641Z,10.23
2024-02-13T09:26:48.104Z,13.27
2024-02-13T09:29:18.468Z,7.03
2024-02-13T09:31:51.762Z,7.45
2024-02-13T09:34:22.327Z,8.65
2024-02-13T09:36:52.865Z,10.00
2024-02-13T09:39:23.802Z,8.55
2024-02-13T09:41:55.893Z,8.88
2024-02-13T09:44:26.812Z,7.68
2024-02-13T09:46:59.934Z,7.30
2024-02-13T09:49:31.629Z,9.20
2024-02-13T09:52:07.350Z,9.38
2024-02-13T09:54:40.538Z,8.50
2024-02-13T09:57:12.129Z,8.55
2024-02-13T09:59:43.101Z,10.48
2024-02-13T10:02:17.275Z,7.78
2024-02-13T10:04:48.389Z,8.57
2024-02-13T10:07:18.774Z,5.30
2024-02-13T10:09:50.779Z,8.02
2024-02-13T10:12:21.949Z,8.45
2024-02-13T10:15:02.219Z,7.72
2024-02-13T10:17:35.364Z,4.95
2024-02-13T10:20:07.819Z,6.47
2024-02-13T10:22:38.588Z,7.47
2024-02-13T10:25:12.259Z,6.38
2024-02-13T10:27:44.148Z,6.35
2024-02-13T10:30:25.094Z,7.50
2024-02-13T10:32:58.924Z,11.73
2024-02-13T10:35:31.107Z,6.32
2024-02-13T10:38:01.609Z,4.80
2024-02-13T10:40:35.363Z,6.38
2024-02-13T10:43:06.979Z,5.75
2024-02-13T10:45:40.982Z,5.88
2024-02-13T10:48:26.768Z,11.77
2024-02-13T10:50:59.420Z,7.47
2024-02-13T10:53:31.124Z,7.40
2024-02-13T10:56:02.561Z,7.43
2024-02-13T10:58:35.172Z,8.75
2024-02-13T11:01:07.262Z,7.35
2024-02-13T11:03:41.659Z,11.25
2024-02-13T11:06:12.396Z,6.50
2024-02-13T11:08:43.520Z,7.65
2024-02-13T11:11:22.877Z,9.95
2024-02-13T11:13:53.648Z,8.55
2024-02-13T11:16:24.290Z,9.38
2024-02-13T11:18:57.694Z,10.00
2024-02-13T11:21:30.082Z,6.18
2024-02-13T11:24:03.923Z,9.48
2024-02-13T11:26:38.016Z,9.85
2024-02-13T11:29:21.423Z,8.60
2024-02-13T11:31:59.949Z,8.43
2024-02-13T11:34:46.521Z,5.95
2024-02-13T11:37:28.499Z,11.40
2024-02-13T11:40:01.821Z,8.55
2024-02-13T11:42:36.767Z,7.68
2024-02-13T11:47:39.633Z,7.32
2024-02-13T11:50:15.065Z,10.82
2024-02-13T11:52:45.793Z,15.15
2024-02-13T11:55:16.953Z,8.02
2024-02-13T11:57:48.781Z,8.05
2024-02-13T12:00:23.540Z,7.07
2024-02-13T12:02:56.432Z,6.78
2024-02-13T12:05:30.211Z,8.80
2024-02-13T12:08:00.892Z,10.35
2024-02-13T12:10:31.543Z,11.23
2024-02-13T12:13:02.328Z,11.50
2024-02-13T12:15:32.869Z,9.35
2024-02-13T12:18:04.972Z,8.07
2024-02-13T12:20:38.180Z,10.75
2024-02-13T12:23:13.726Z,8.00
2024-02-13T12:25:44.132Z,12.98
2024-02-13T12:28:18.890Z,7.40
2024-02-13T12:30:52.247Z,7.82
2024-02-13T12:33:25.334Z,6.47
2024-02-13T12:36:09.208Z,6.18
2024-02-13T12:38:40.294Z,7.72
2024-02-13T12:41:10.707Z,8.32
2024-02-13T12:43:42.683Z,6.72
2024-02-13T12:46:14.608Z,7.88
2024-02-13T12:48:45.068Z,9.32
2024-02-13T12:51:19.475Z,9.00
2024-02-13T12:53:52.726Z,8.30
2024-02-13T12:56:25.157Z,6.70
2024-02-13T12:58:55.514Z,8.65
2024-02-13T13:01:26.372Z,5.97
2024-02-13T13:03:58.944Z,5.93
2024-02-13T13:06:34.822Z,7.95
2024-02-13T13:09:16.169Z,7.53
2024-02-13T13:14:22.170Z,5.50
2024-02-13T13:16:53.406Z,7.70
2024-02-13T13:19:29.447Z,6.38
2024-02-13T13:22:04.441Z,7.93
2024-02-13T13:24:34.873Z,12.98
2024-02-13T13:27:10.182Z,9.30
2024-02-13T13:29:43.130Z,10.32
2024-02-13T13:32:13.579Z,9.38
2024-02-13T13:34:44.924Z,11.57
2024-02-13T13:37:17.963Z,13.57
2024-02-13T13:39:48.714Z,12.43
2024-02-13T13:42:21.048Z,13.35
2024-02-13T13:44:51.566Z,8.98
2024-02-13T13:47:21.957Z,13.13
2024-02-13T13:49:52.320Z,18.08
2024-02-13T13:52:28.044Z,11.40
2024-02-13T13:54:58.381Z,11.40
2024-02-13T13:57:28.720Z,10.60
2024-02-13T13:59:59.149Z,12.63
2024-02-13T14:02:29.944Z,15.95
2024-02-13T14:05:01.253Z,11.98
2024-02-13T14:07:34.220Z,7.15
2024-02-13T14:10:04.575Z,9.10
2024-02-13T14:12:34.977Z,10.80
2024-02-13T14:15:05.994Z,11.45
2024-02-13T14:17:36.991Z,11.75
2024-02-13T14:20:11.325Z,9.32
2024-02-13T14:22:46.200Z,9.88
2024-02-13T14:27:49.513Z,11.88
2024-02-13T14:30:20.546Z,8.50
2024-02-13T14:32:51.372Z,11.52
2024-02-13T14:35:22.460Z,8.07
2024-02-13T14:37:57.937Z,12.68
2024-02-13T14:40:29.622Z,8.80
2024-02-13T14:42:59.997Z,17.40
2024-02-13T14:45:30.452Z,9.52
2024-02-13T14:48:00.926Z,11.60
2024-02-13T14:50:31.431Z,9.52
2024-02-13T14:53:05.597Z,7.57
2024-02-13T14:55:35.944Z,7.30
2024-02-13T14:58:14.812Z,6.97
2024-02-13T15:00:54.907Z,7.03
2024-02-13T15:03:26.015Z,8.27
2024-02-13T15:05:56.778Z,10.55
2024-02-13T15:08:31.256Z,8.57
2024-02-13T15:11:05.023Z,5.20
2024-02-13T15:13:36.950Z,9.15
2024-02-13T15:16:08.998Z,9.13
2024-02-13T15:18:40.741Z,8.38
2024-02-13T15:21:11.295Z,8.38
2024-02-13T15:23:45.107Z,10.73
2024-02-13T15:26:15.478Z,8.30
2024-02-13T15:28:45.916Z,7.50
2024-02-13T15:31:16.250Z,13.13
2024-02-13T15:33:48.711Z,9.38
2024-02-13T15:36:32.917Z,13.70
2024-02-13T15:39:18.721Z,8.02
2024-02-13T15:42:02.542Z,10.23
2024-02-13T15:44:45.270Z,11.25
2024-02-13T15:47:16.777Z,9.25
2024-02-13T15:49:51.378Z,12.05
2024-02-13T15:52:22.898Z,13.27
2024-02-13T15:54:56.320Z,11.50
2024-02-13T15:57:27.723Z,11.85
2024-02-13T15:59:58.131Z,11.65
2024-02-13T16:02:28.544Z,12.80
2024-02-13T16:04:58.894Z,12.90
2024-02-13T16:07:33.444Z,12.80
2024-02-13T16:10:07.238Z,9.98
2024-02-13T16:12:38.640Z,9.82
2024-02-13T16:15:13.648Z,12.75
2024-02-13T16:20:16.436Z,12.70
2024-02-13T16:22:47.625Z,14.10
2024-02-13T16:25:20.835Z,10.40
2024-02-13T16:27:52.535Z,13.15
2024-02-13T16:30:24.253Z,11.57
2024-02-13T16:32:54.651Z,13.57
2024-02-13T16:35:26.038Z,9.45
2024-02-13T16:37:56.511Z,13.70
2024-02-13T16:40:29.484Z,10.70
2024-02-13T16:43:01.494Z,13.02
2024-02-13T16:45:33.812Z,16.35
2024-02-13T16:48:06.503Z,16.52
2024-02-13T16:50:36.999Z,13.95
2024-02-13T16:53:08.277Z,13.73
2024-02-13T16:55:41.909Z,13.40
2024-02-13T16:58:12.608Z,17.80
2024-02-13T17:00:42.992Z,13.75
2024-02-13T17:03:14.636Z,17.50
2024-02-13T17:05:45.160Z,20.63
2024-02-13T17:08:15.611Z,20.60
2024-02-13T17:10:48.696Z,21.98
2024-02-13T17:13:19.022Z,19.00
2024-02-13T17:15:49.544Z,23.67
2024-02-13T17:18:22.500Z,15.40
2024-02-13T17:20:53.138Z,16.52
2024-02-13T17:23:23.596Z,19.42
2024-02-13T17:25:56.892Z,18.77
2024-02-13T17:28:27.291Z,20.90
2024-02-13T17:30:58.582Z,21.70
2024-02-13T17:33:29.132Z,18.33
2024-02-13T17:36:00.352Z,19.70
2024-02-13T17:38:30.721Z,18.65
2024-02-13T17:41:03.684Z,18.08
2024-02-13T17:43:34.752Z,25.95
2024-02-13T17:46:05.742Z,22.88
2024-02-13T17:48:36.260Z,23.58
2024-02-13T17:51:08.434Z,22.63
2024-02-13T17:53:38.978Z,28.02
2024-02-13T17:56:13.941Z,27.58
2024-02-13T18:01:14.837Z,30.17
2024-02-13T18:03:45.252Z,28.35
2024-02-13T18:06:15.722Z,24.83
2024-02-13T18:08:46.376Z,38.63
2024-02-13T18:11:19.439Z,30.50
2024-02-13T18:13:52.120Z,30.20
2024-02-13T18:16:22.834Z,40.60
2024-02-13T18:18:53.321Z,33.13
2024-02-13T18:21:23.966Z,35.38
2024-02-13T18:23:58.927Z,37.72
2024-02-13T18:26:33.787Z,38.83
2024-02-13T18:29:04.154Z,45.60
2024-02-13T18:31:34.489Z,32.13
2024-02-13T18:34:05.112Z,34.92
2024-02-13T18:36:35.587Z,29.35
2024-02-13T18:39:06.444Z,28.98
2024-02-13T18:41:39.395Z,31.40
2024-02-13T18:44:09.799Z,33.45
2024-02-13T18:46:43.616Z,48.50
2024-02-13T18:49:14.313Z,37.28
2024-02-13T18:51:44.689Z,35.75
2024-02-13T18:54:15.825Z,38.28
2024-02-13T18:56:49.946Z,37.95
2024-02-13T18:59:20.983Z,26.13
2024-02-13T19:01:53.442Z,36.75
2024-02-13T19:04:23.812Z,42.03
2024-02-13T19:06:54.471Z,40.45
2024-02-13T19:09:25.001Z,44.88
2024-02-13T19:11:58.049Z,45.88
2024-02-13T19:14:28.501Z,50.60
2024-02-13T19:16:59.800Z,48.33
2024-02-13T19:19:30.150Z,47.17
2024-02-13T19:22:00.497Z,45.67
2024-02-13T19:24:30.974Z,56.90
2024-02-13T19:27:04.341Z,41.42
2024-02-13T19:29:34.857Z,45.70
2024-02-13T19:32:05.578Z,54.03
2024-02-13T19:34:36.279Z,43.33
2024-02-13T19:37:07.125Z,43.38
2024-02-13T19:39:38.521Z,41.60
2024-02-13T19:42:13.410Z,64.75
2024-02-13T19:44:46.095Z,40.03
2024-02-13T19:47:16.448Z,37.58
2024-02-13T19:49:46.923Z,71.40
2024-02-13T19:52:17.640Z,42.15
2024-02-13T19:54:48.102Z,51.60
2024-02-13T19:57:21.082Z,48.10
2024-02-13T19:59:52.288Z,49.88
2024-02-13T20:02:23.247Z,42.38
2024-02-13T20:04:58.254Z,49.17
2024-02-13T20:07:29.138Z,46.83
2024-02-13T20:09:59.505Z,46.35
2024-02-13T20:12:33.621Z,56.13
2024-02-13T20:15:04.618Z,51.93
2024-02-13T20:17:35.204Z,46.67
2024-02-13T20:20:05.761Z,48.75
2024-02-13T20:22:36.337Z,54.05
2024-02-13T20:25:07.257Z,49.30
2024-02-13T20:27:44.766Z,59.55
2024-02-13T20:30:17.390Z,53.47
2024-02-13T20:32:50.350Z,59.45
2024-02-13T20:35:21.103Z,56.80
2024-02-13T20:37:51.528Z,58.92
2024-02-13T20:40:21.938Z,59.58
2024-02-13T20:42:57.806Z,52.20
2024-02-13T20:45:28.321Z,49.70
2024-02-13T20:47:58.836Z,47.83
2024-02-13T20:50:29.347Z,45.22
2024-02-13T20:52:59.685Z,41.67
2024-02-13T20:55:30.159Z,35.38
2024-02-13T20:58:04.398Z,32.70
2024-02-13T21:00:36.514Z,30.30
2024-02-13T21:03:07.301Z,32.20
2024-02-13T21:05:39.642Z,33.92
2024-02-13T21:08:10.707Z,30.10
2024-02-13T21:10:41.217Z,28.02
2024-02-13T21:13:15.103Z,31.40
2024-02-13T21:15:45.478Z,23.73
2024-02-13T21:18:15.971Z,23.30
2024-02-13T21:20:47.766Z,127.38
2024-02-13T21:23:30.712Z,39.35
2024-02-13T21:26:01.285Z,28.83
2024-02-13T21:28:34.610Z,22.33
2024-02-13T21:31:07.936Z,21.30
2024-02-13T21:33:38.389Z,23.98
2024-02-13T21:36:10.129Z,17.58
2024-02-13T21:38:40.550Z,17.38
2024-02-13T21:41:12.581Z,16.15
2024-02-13T21:43:45.569Z,15.13
2024-02-13T21:46:19.833Z,12.10
2024-02-13T21:48:50.685Z,19.80
2024-02-13T21:51:21.145Z,11.65
2024-02-13T21:53:51.633Z,14.35
2024-02-13T21:56:25.294Z,16.45
2024-02-13T22:01:30.996Z,10.80
2024-02-13T22:04:01.429Z,9.65
2024-02-13T22:06:33.400Z,8.63
2024-02-13T22:09:04.015Z,7.47
2024-02-13T22:11:34.820Z,14.15
2024-02-13T22:14:07.775Z,8.15
2024-02-13T22:16:38.756Z,8.02
2024-02-13T22:19:09.234Z,9.65
2024-02-13T22:21:39.701Z,6.72
2024-02-13T22:24:10.621Z,9.18
2024-02-13T22:26:41.902Z,6.10
2024-02-13T22:29:14.900Z,4.95
2024-02-13T22:31:45.664Z,5.38
2024-02-13T22:34:16.423Z,6.72
2024-02-13T22:36:46.918Z,4.95
2024-02-13T22:39:17.491Z,6.20
2024-02-13T22:41:47.951Z,5.30
2024-02-13T22:44:24.571Z,3.83
2024-02-13T22:46:55.128Z,3.38
2024-02-13T22:49:25.505Z,5.05
2024-02-13T22:51:55.908Z,5.55
2024-02-13T22:54:26.640Z,5.35
2024-02-13T22:56:57.943Z,5.47
2024-02-13T22:59:30.967Z,4.85
2024-02-13T23:02:01.634Z,3.75
2024-02-13T23:04:32.535Z,3.50
2024-02-13T23:07:02.983Z,3.58
2024-02-13T23:09:33.351Z,4.05
2024-02-13T23:12:04.136Z,4.18
2024-02-13T23:14:38.307Z,8.82
2024-02-13T23:17:09.163Z,3.58
2024-02-13T23:19:40.279Z,8.25
2024-02-13T23:22:10.756Z,7.10
2024-02-13T23:24:42.711Z,5.53
2024-02-13T23:27:13.078Z,7.80
2024-02-13T23:29:46.087Z,10.98
2024-02-13T23:32:16.954Z,6.43
2024-02-13T23:34:47.383Z,7.90
2024-02-13T23:37:17.759Z,6.93
2024-02-13T23:39:48.411Z,11.15
2024-02-13T23:42:18.772Z,9.30
2024-02-13T23:44:51.720Z,9.32
2024-02-13T23:47:22.276Z,9.85
2024-02-13T23:49:52.824Z,10.70
2024-02-13T23:52:23.185Z,12.93
2024-02-13T23:54:53.543Z,13.10
2024-02-13T23:57:24.070Z,15.90
2024-02-13T23:59:57.154Z,12.70
